createdAt,value
2019-05-07T00:00:28.891Z,0.00
2019-05-07T00:01:28.944Z,0.00
2019-05-07T00:02:28.999Z,0.00
2019-05-07T00:03:29.051Z,0.00
2019-05-07T00:04:29.108Z,0.00
2019-05-07T00:05:29.161Z,0.00
2019-05-07T00:06:29.214Z,0.00
2019-05-07T00:07:29.268Z,0.00
2019-05-07T00:08:29.323Z,0.00
2019-05-07T00:09:29.377Z,0.00
2019-05-07T00:10:29.432Z,0.00
2019-05-07T00:11:29.486Z,0.00
2019-05-07T00:12:29.539Z,0.00
2019-05-07T00:13:29.594Z,0.00
2019-05-07T00:14:29.649Z,0.00
2019-05-07T00:15:29.701Z,0.00
2019-05-07T00:16:29.756Z,0.00
2019-05-07T00:17:32.165Z,0.00
2019-05-07T00:18:32.023Z,0.00
2019-05-07T00:19:32.235Z,0.00
2019-05-07T00:20:29.972Z,0.00
2019-05-07T00:21:30.027Z,0.00
2019-05-07T00:22:30.081Z,0.00
2019-05-07T00:23:32.342Z,0.00
2019-05-07T00:24:30.188Z,0.00
2019-05-07T00:25:32.562Z,0.00
2019-05-07T00:26:32.038Z,0.00
2019-05-07T00:27:32.072Z,0.00
2019-05-07T00:28:32.448Z,0.00
2019-05-07T00:29:32.156Z,0.00
2019-05-07T00:30:30.512Z,0.00
2019-05-07T00:31:32.510Z,0.00
2019-05-07T00:32:32.715Z,0.00
2019-05-07T00:33:32.355Z,0.00
2019-05-07T00:34:32.728Z,0.00
2019-05-07T00:35:32.378Z,0.00
2019-05-07T00:36:32.396Z,0.00
2019-05-07T00:37:32.270Z,0.00
2019-05-07T00:38:31.957Z,0.00
2019-05-07T00:39:32.798Z,0.00
2019-05-07T00:40:32.107Z,0.00
2019-05-07T00:41:31.863Z,0.00
2019-05-07T00:42:32.724Z,0.00
2019-05-07T00:43:32.212Z,0.00
2019-05-07T00:44:32.800Z,0.00
2019-05-07T00:45:32.627Z,0.00
2019-05-07T00:46:32.162Z,0.00
2019-05-07T00:47:33.018Z,0.00
2019-05-07T00:48:32.855Z,0.00
2019-05-07T00:49:33.081Z,0.00
2019-05-07T00:50:33.143Z,0.00
2019-05-07T00:51:33.402Z,0.00
2019-05-07T00:52:33.521Z,0.00
2019-05-07T00:53:32.866Z,0.00
2019-05-07T00:54:32.497Z,0.00
2019-05-07T00:55:32.580Z,0.00
2019-05-07T00:56:33.220Z,0.00
2019-05-07T00:57:32.464Z,0.00
2019-05-07T00:58:32.173Z,0.00
2019-05-07T00:59:32.272Z,0.00
2019-05-07T01:00:33.296Z,0.00
2019-05-07T01:01:32.413Z,0.00
2019-05-07T01:02:32.495Z,0.00
2019-05-07T01:03:32.827Z,0.00
2019-05-07T01:04:33.149Z,0.00
2019-05-07T01:05:32.658Z,0.00
2019-05-07T01:06:33.106Z,0.00
2019-05-07T01:07:32.641Z,0.00
2019-05-07T01:08:32.564Z,0.00
2019-05-07T01:09:32.618Z,0.00
2019-05-07T01:10:33.073Z,0.00
2019-05-07T01:11:33.509Z,0.00
2019-05-07T01:12:32.997Z,0.00
2019-05-07T01:13:32.834Z,0.00
2019-05-07T01:14:32.887Z,0.00
2019-05-07T01:15:34.643Z,0.00
2019-05-07T01:16:33.207Z,0.00
2019-05-07T01:17:33.589Z,0.00
2019-05-07T01:18:33.101Z,0.00
2019-05-07T01:19:33.155Z,0.00
2019-05-07T01:20:33.211Z,0.00
2019-05-07T01:21:33.267Z,0.00
2019-05-07T01:22:33.318Z,0.00
2019-05-07T01:23:33.372Z,0.00
2019-05-07T01:24:33.425Z,0.00
2019-05-07T01:25:33.480Z,0.00
2019-05-07T01:26:33.537Z,0.00
2019-05-07T01:27:33.586Z,0.00
2019-05-07T01:28:33.641Z,0.00
2019-05-07T01:29:33.694Z,0.00
2019-05-07T01:30:33.748Z,0.00
2019-05-07T01:31:33.802Z,0.00
2019-05-07T01:32:33.858Z,0.00
2019-05-07T01:33:33.911Z,0.00
2019-05-07T01:34:33.971Z,0.00
2019-05-07T01:35:34.017Z,0.00
2019-05-07T01:36:34.072Z,0.00
2019-05-07T01:37:34.125Z,0.00
2019-05-07T01:38:34.178Z,0.00
2019-05-07T01:39:34.252Z,0.00
2019-05-07T01:40:34.286Z,0.00
2019-05-07T01:41:34.340Z,0.00
2019-05-07T01:42:36.568Z,0.00
2019-05-07T01:43:34.459Z,0.00
2019-05-07T01:44:34.502Z,0.00
2019-05-07T01:45:45.382Z,0.00
2019-05-07T01:46:34.610Z,0.00
2019-05-07T01:47:34.663Z,0.00
2019-05-07T01:48:34.718Z,0.00
2019-05-07T01:49:34.778Z,0.00
2019-05-07T01:50:34.824Z,0.00
2019-05-07T01:51:34.880Z,0.00
2019-05-07T01:52:34.948Z,0.00
2019-05-07T01:53:34.987Z,0.00
2019-05-07T01:54:35.039Z,0.00
2019-05-07T01:55:35.104Z,0.00
2019-05-07T01:56:35.147Z,0.00
2019-05-07T01:57:35.202Z,0.00
2019-05-07T01:58:35.258Z,0.00
2019-05-07T01:59:35.308Z,0.00
2019-05-07T02:00:35.362Z,0.00
2019-05-07T02:01:35.921Z,0.00
2019-05-07T02:02:35.470Z,0.00
2019-05-07T02:03:35.523Z,0.00
2019-05-07T02:04:35.578Z,0.00
2019-05-07T02:05:35.632Z,0.00
2019-05-07T02:06:35.684Z,0.00
2019-05-07T02:07:35.739Z,0.00
2019-05-07T02:08:35.793Z,0.00
2019-05-07T02:09:35.847Z,0.00
2019-05-07T02:10:35.899Z,0.00
2019-05-07T02:11:35.953Z,0.00
2019-05-07T02:12:36.010Z,0.00
2019-05-07T02:13:36.063Z,0.00
2019-05-07T02:14:36.114Z,0.00
2019-05-07T02:15:36.169Z,0.00
2019-05-07T02:16:36.225Z,0.00
2019-05-07T02:17:36.276Z,0.00
2019-05-07T02:18:36.330Z,0.00
2019-05-07T02:19:36.385Z,0.00
2019-05-07T02:20:36.437Z,0.00
2019-05-07T02:21:36.491Z,0.00
2019-05-07T02:22:36.545Z,0.00
2019-05-07T02:23:36.599Z,0.00
2019-05-07T02:24:36.653Z,0.00
2019-05-07T02:25:36.706Z,0.00
2019-05-07T02:26:36.760Z,0.00
2019-05-07T02:27:36.813Z,0.00
2019-05-07T02:28:36.867Z,0.00
2019-05-07T02:29:38.228Z,0.00
2019-05-07T02:30:36.976Z,0.00
2019-05-07T02:31:37.031Z,0.00
2019-05-07T02:32:37.084Z,0.00
2019-05-07T02:33:37.137Z,0.00
2019-05-07T02:34:37.190Z,0.00
2019-05-07T02:35:37.243Z,0.00
2019-05-07T02:36:37.305Z,0.00
2019-05-07T02:37:48.339Z,0.00
2019-05-07T02:38:37.404Z,0.00
2019-05-07T02:39:37.457Z,0.00
2019-05-07T02:40:37.922Z,0.00
2019-05-07T02:41:37.903Z,0.00
2019-05-07T02:42:37.631Z,0.00
2019-05-07T02:43:37.683Z,0.00
2019-05-07T02:44:37.726Z,0.00
2019-05-07T02:45:37.779Z,0.00
2019-05-07T02:46:37.833Z,0.00
2019-05-07T02:47:37.910Z,0.00
2019-05-07T02:48:37.940Z,0.00
2019-05-07T02:49:37.995Z,0.00
2019-05-07T02:50:38.048Z,0.00
2019-05-07T02:51:38.126Z,0.00
2019-05-07T02:52:38.154Z,0.00
2019-05-07T02:53:38.212Z,0.00
2019-05-07T02:54:38.261Z,0.00
2019-05-07T02:55:38.314Z,0.00
2019-05-07T02:56:38.368Z,0.00
2019-05-07T02:57:38.421Z,0.00
2019-05-07T02:58:38.475Z,0.00
2019-05-07T02:59:38.528Z,0.00
2019-05-07T03:00:38.580Z,0.00
2019-05-07T03:01:38.635Z,0.00
2019-05-07T03:02:38.689Z,0.00
2019-05-07T03:03:38.743Z,0.00
2019-05-07T03:04:38.795Z,0.00
2019-05-07T03:05:38.848Z,0.00
2019-05-07T03:06:38.903Z,0.00
2019-05-07T03:07:38.969Z,0.00
2019-05-07T03:08:39.011Z,0.00
2019-05-07T03:09:39.064Z,0.00
2019-05-07T03:10:39.120Z,0.00
2019-05-07T03:11:39.168Z,0.00
2019-05-07T03:12:39.224Z,0.00
2019-05-07T03:13:39.277Z,0.00
2019-05-07T03:14:39.329Z,0.00
2019-05-07T03:15:39.382Z,0.00
2019-05-07T03:16:44.262Z,0.00
2019-05-07T03:17:42.652Z,0.00
2019-05-07T03:18:39.542Z,0.00
2019-05-07T03:19:42.759Z,0.00
2019-05-07T03:20:39.652Z,0.00
2019-05-07T03:21:39.704Z,0.00
2019-05-07T03:22:42.635Z,0.00
2019-05-07T03:23:42.693Z,0.00
2019-05-07T03:24:43.137Z,0.00
2019-05-07T03:25:42.985Z,0.00
2019-05-07T03:26:43.333Z,0.00
2019-05-07T03:27:42.926Z,0.00
2019-05-07T03:28:42.304Z,0.00
2019-05-07T03:29:40.130Z,0.00
2019-05-07T03:30:44.962Z,0.00
2019-05-07T03:31:40.236Z,0.00
2019-05-07T03:32:42.289Z,0.00
2019-05-07T03:33:40.343Z,0.00
2019-05-07T03:34:45.841Z,0.00
2019-05-07T03:35:45.793Z,0.00
2019-05-07T03:36:46.621Z,0.00
2019-05-07T03:37:43.354Z,0.00
2019-05-07T03:38:43.722Z,0.00
2019-05-07T03:39:43.316Z,0.00
2019-05-07T03:40:40.715Z,0.00
2019-05-07T03:41:43.338Z,0.00
2019-05-07T03:42:43.747Z,0.00
2019-05-07T03:43:43.360Z,0.00
2019-05-07T03:44:44.223Z,0.00
2019-05-07T03:45:43.271Z,0.00
2019-05-07T03:46:54.654Z,0.00
2019-05-07T03:47:43.866Z,0.00
2019-05-07T03:48:43.818Z,0.00
2019-05-07T03:49:42.967Z,0.00
2019-05-07T03:50:43.078Z,0.00
2019-05-07T03:51:44.230Z,0.00
2019-05-07T03:52:42.885Z,5.63
2019-05-07T03:53:43.510Z,5.63
2019-05-07T03:54:43.123Z,5.63
2019-05-07T03:55:44.449Z,5.63
2019-05-07T03:56:43.575Z,5.63
2019-05-07T03:58:43.225Z,5.63
2019-05-07T03:59:43.262Z,5.63
2019-05-07T04:00:44.273Z,5.63
2019-05-07T04:01:43.100Z,11.25
2019-05-07T04:02:43.814Z,11.25
2019-05-07T04:03:44.425Z,11.25
2019-05-07T04:04:43.208Z,11.25
2019-05-07T04:05:43.417Z,11.25
2019-05-07T04:06:43.397Z,16.88
2019-05-07T04:07:43.035Z,16.88
2019-05-07T04:08:43.365Z,16.88
2019-05-07T04:09:43.727Z,16.88
2019-05-07T04:10:44.171Z,16.88
2019-05-07T04:11:43.305Z,16.88
2019-05-07T04:12:44.266Z,22.50
2019-05-07T04:13:43.977Z,22.50
2019-05-07T04:14:43.189Z,22.50
2019-05-07T04:15:44.103Z,22.50
2019-05-07T04:16:44.055Z,22.50
2019-05-07T04:17:43.144Z,28.13
2019-05-07T04:18:43.667Z,28.13
2019-05-07T04:19:44.048Z,28.13
2019-05-07T04:20:43.787Z,28.13
2019-05-07T04:21:43.488Z,33.75
2019-05-07T04:22:43.387Z,33.75
2019-05-07T04:23:43.917Z,33.75
2019-05-07T04:24:43.152Z,33.75
2019-05-07T04:25:43.738Z,33.75
2019-05-07T04:26:43.192Z,39.38
2019-05-07T04:27:46.910Z,39.38
2019-05-07T04:28:43.709Z,45.00
2019-05-07T04:29:43.357Z,45.00
2019-05-07T04:30:43.932Z,45.00
2019-05-07T04:31:43.997Z,45.00
2019-05-07T04:32:43.581Z,45.00
2019-05-07T04:33:44.151Z,50.63
2019-05-07T04:34:44.470Z,50.63
2019-05-07T04:35:43.716Z,50.63
2019-05-07T04:36:43.988Z,50.63
2019-05-07T04:37:43.747Z,50.63
2019-05-07T04:38:44.198Z,50.63
2019-05-07T04:39:43.854Z,50.63
2019-05-07T04:40:43.919Z,56.25
2019-05-07T04:41:43.994Z,56.25
2019-05-07T04:42:44.045Z,56.25
2019-05-07T04:43:44.074Z,56.25
2019-05-07T04:44:44.121Z,56.25
2019-05-07T04:45:44.179Z,56.25
2019-05-07T04:46:47.998Z,56.25
2019-05-07T04:47:47.568Z,56.25
2019-05-07T04:48:44.448Z,56.25
2019-05-07T04:49:44.388Z,61.88
2019-05-07T04:50:47.844Z,56.25
2019-05-07T04:51:44.492Z,56.25
2019-05-07T04:52:44.545Z,56.25
2019-05-07T04:53:44.599Z,56.25
2019-05-07T04:54:44.651Z,61.88
2019-05-07T04:55:44.704Z,56.25
2019-05-07T04:56:44.758Z,56.25
2019-05-07T04:57:44.822Z,56.25
2019-05-07T04:58:44.865Z,56.25
2019-05-07T04:59:44.917Z,61.88
2019-05-07T05:00:44.975Z,56.25
2019-05-07T05:01:45.024Z,61.88
2019-05-07T05:02:45.078Z,61.88
2019-05-07T05:03:45.131Z,61.88
2019-05-07T05:04:45.184Z,61.88
2019-05-07T05:05:45.239Z,61.88
2019-05-07T05:06:45.371Z,61.88
2019-05-07T05:07:45.351Z,61.88
2019-05-07T05:08:45.769Z,67.50
2019-05-07T05:09:45.452Z,67.50
2019-05-07T05:10:45.504Z,73.13
2019-05-07T05:11:45.559Z,73.13
2019-05-07T05:12:45.613Z,78.75
2019-05-07T05:13:45.681Z,90.00
2019-05-07T05:14:45.719Z,95.63
2019-05-07T05:15:45.780Z,101.25
2019-05-07T05:16:45.869Z,101.25
2019-05-07T05:17:50.662Z,106.88
2019-05-07T05:18:46.317Z,106.88
2019-05-07T05:19:45.985Z,106.88
2019-05-07T05:20:46.038Z,106.88
2019-05-07T05:21:46.093Z,106.88
2019-05-07T05:22:46.162Z,106.88
2019-05-07T05:23:46.202Z,106.88
2019-05-07T05:24:46.254Z,106.88
2019-05-07T05:25:46.306Z,106.88
2019-05-07T05:26:46.359Z,106.88
2019-05-07T05:27:46.413Z,112.50
2019-05-07T05:28:46.474Z,118.13
2019-05-07T05:29:46.522Z,129.38
2019-05-07T05:30:47.264Z,135.00
2019-05-07T05:31:46.632Z,140.63
2019-05-07T05:32:46.682Z,146.25
2019-05-07T05:33:47.437Z,157.50
2019-05-07T05:34:47.415Z,163.13
2019-05-07T05:35:46.843Z,151.88
2019-05-07T05:36:46.897Z,151.88
2019-05-07T05:37:46.951Z,168.75
2019-05-07T05:38:47.490Z,196.88
2019-05-07T05:39:47.057Z,208.13
2019-05-07T05:40:47.111Z,213.75
2019-05-07T05:41:47.166Z,219.38
2019-05-07T05:42:47.217Z,225.00
2019-05-07T05:43:47.272Z,230.63
2019-05-07T05:44:47.327Z,230.63
2019-05-07T05:45:47.386Z,236.25
2019-05-07T05:46:47.433Z,236.25
2019-05-07T05:48:01.111Z,230.63
2019-05-07T05:48:47.541Z,241.88
2019-05-07T05:49:47.596Z,241.88
2019-05-07T05:50:47.650Z,230.63
2019-05-07T05:51:47.704Z,225.00
2019-05-07T05:52:47.758Z,219.38
2019-05-07T05:53:47.816Z,213.75
2019-05-07T05:54:47.867Z,208.13
2019-05-07T05:55:47.920Z,208.13
2019-05-07T05:56:47.975Z,208.13
2019-05-07T05:57:48.031Z,213.75
2019-05-07T05:58:48.084Z,219.38
2019-05-07T05:59:51.988Z,225.00
2019-05-07T06:00:48.194Z,230.63
2019-05-07T06:01:48.354Z,236.25
2019-05-07T06:02:48.301Z,241.88
2019-05-07T06:03:48.355Z,253.13
2019-05-07T06:04:48.411Z,258.75
2019-05-07T06:05:48.465Z,258.75
2019-05-07T06:06:48.519Z,264.38
2019-05-07T06:07:48.575Z,264.38
2019-05-07T06:08:48.644Z,264.38
2019-05-07T06:09:48.684Z,264.38
2019-05-07T06:10:48.738Z,270.00
2019-05-07T06:11:48.794Z,270.00
2019-05-07T06:12:49.159Z,270.00
2019-05-07T06:13:48.903Z,270.00
2019-05-07T06:14:48.956Z,270.00
2019-05-07T06:15:49.015Z,270.00
2019-05-07T06:16:49.068Z,270.00
2019-05-07T06:17:49.122Z,281.25
2019-05-07T06:18:49.182Z,292.50
2019-05-07T06:19:49.248Z,320.63
2019-05-07T06:20:49.296Z,343.13
2019-05-07T06:21:49.348Z,365.63
2019-05-07T06:22:49.405Z,376.88
2019-05-07T06:23:49.451Z,376.88
2019-05-07T06:24:49.507Z,376.88
2019-05-07T06:25:52.253Z,371.25
2019-05-07T06:26:49.617Z,371.25
2019-05-07T06:27:49.672Z,376.88
2019-05-07T06:28:51.775Z,388.13
2019-05-07T06:29:49.784Z,393.75
2019-05-07T06:30:49.840Z,399.38
2019-05-07T06:31:50.052Z,399.38
2019-05-07T06:32:52.119Z,405.00
2019-05-07T06:33:52.203Z,410.63
2019-05-07T06:34:52.142Z,421.88
2019-05-07T06:35:52.078Z,427.50
2019-05-07T06:36:50.173Z,438.75
2019-05-07T06:37:52.165Z,455.63
2019-05-07T06:38:50.285Z,472.50
2019-05-07T06:39:50.340Z,483.75
2019-05-07T06:40:51.964Z,483.75
2019-05-07T06:41:52.462Z,466.88
2019-05-07T06:42:52.331Z,450.00
2019-05-07T06:43:52.138Z,438.75
2019-05-07T06:44:51.888Z,421.88
2019-05-07T06:45:51.923Z,421.88
2019-05-07T06:46:52.637Z,416.25
2019-05-07T06:47:52.019Z,421.88
2019-05-07T06:48:52.692Z,416.25
2019-05-07T06:49:52.309Z,416.25
2019-05-07T06:50:52.274Z,427.50
2019-05-07T06:51:52.868Z,433.13
2019-05-07T06:52:51.889Z,438.75
2019-05-07T06:53:51.876Z,438.75
2019-05-07T06:54:52.362Z,444.38
2019-05-07T06:55:52.122Z,455.63
2019-05-07T06:56:52.366Z,461.25
2019-05-07T06:57:53.036Z,478.13
2019-05-07T06:58:52.613Z,489.38
2019-05-07T06:59:53.120Z,506.25
2019-05-07T07:00:52.765Z,500.63
2019-05-07T07:01:52.965Z,506.25
2019-05-07T07:02:52.480Z,517.50
2019-05-07T07:03:52.711Z,528.75
2019-05-07T07:04:52.077Z,540.00
2019-05-07T07:05:51.912Z,556.88
2019-05-07T07:06:52.515Z,562.50
2019-05-07T07:07:52.667Z,556.88
2019-05-07T07:08:52.627Z,551.25
2019-05-07T07:09:52.050Z,540.00
2019-05-07T07:10:52.314Z,540.00
2019-05-07T07:11:52.900Z,540.00
2019-05-07T07:12:52.970Z,528.75
2019-05-07T07:13:52.260Z,523.13
2019-05-07T07:14:52.317Z,517.50
2019-05-07T07:15:52.374Z,517.50
2019-05-07T07:16:52.742Z,511.88
2019-05-07T07:17:52.511Z,511.88
2019-05-07T07:18:55.590Z,511.88
2019-05-07T07:19:52.603Z,511.88
2019-05-07T07:20:52.660Z,506.25
2019-05-07T07:21:52.901Z,495.00
2019-05-07T07:22:52.773Z,495.00
2019-05-07T07:23:52.837Z,489.38
2019-05-07T07:24:53.170Z,483.75
2019-05-07T07:25:53.281Z,478.13
2019-05-07T07:26:53.039Z,478.13
2019-05-07T07:27:53.061Z,466.88
2019-05-07T07:28:53.118Z,466.88
2019-05-07T07:29:53.176Z,472.50
2019-05-07T07:30:53.254Z,472.50
2019-05-07T07:31:53.293Z,483.75
2019-05-07T07:32:53.701Z,495.00
2019-05-07T07:33:53.406Z,506.25
2019-05-07T07:34:53.461Z,517.50
2019-05-07T07:35:53.519Z,534.38
2019-05-07T07:37:05.429Z,551.25
2019-05-07T07:37:53.634Z,556.88
2019-05-07T07:38:53.692Z,568.13
2019-05-07T07:39:53.754Z,573.75
2019-05-07T07:40:53.826Z,573.75
2019-05-07T07:41:53.865Z,568.13
2019-05-07T07:42:53.955Z,568.13
2019-05-07T07:43:53.990Z,568.13
2019-05-07T07:44:54.037Z,562.50
2019-05-07T07:45:54.102Z,562.50
2019-05-07T07:46:54.151Z,562.50
2019-05-07T07:47:54.210Z,573.75
2019-05-07T07:49:07.187Z,590.63
2019-05-07T07:49:54.710Z,601.88
2019-05-07T07:50:54.390Z,607.50
2019-05-07T07:51:54.455Z,624.38
2019-05-07T07:52:54.498Z,641.25
2019-05-07T07:53:54.555Z,658.13
2019-05-07T07:54:54.652Z,669.38
2019-05-07T07:55:54.686Z,675.00
2019-05-07T07:56:56.459Z,669.38
2019-05-07T07:57:54.789Z,680.63
2019-05-07T07:58:54.852Z,680.63
2019-05-07T07:59:54.906Z,686.25
2019-05-07T08:00:54.961Z,703.13
2019-05-07T08:01:55.021Z,714.38
2019-05-07T08:02:55.077Z,725.63
2019-05-07T08:03:55.136Z,731.25
2019-05-07T08:04:55.212Z,731.25
2019-05-07T08:05:55.254Z,736.88
2019-05-07T08:06:55.311Z,742.50
2019-05-07T08:07:55.372Z,753.75
2019-05-07T08:08:55.429Z,759.38
2019-05-07T08:09:55.487Z,753.75
2019-05-07T08:10:55.874Z,742.50
2019-05-07T08:11:56.332Z,731.25
2019-05-07T08:12:55.662Z,731.25
2019-05-07T08:13:55.722Z,725.63
2019-05-07T08:15:11.076Z,725.63
2019-05-07T08:15:55.838Z,736.88
2019-05-07T08:16:55.903Z,759.38
2019-05-07T08:17:55.959Z,776.25
2019-05-07T08:18:56.014Z,793.13
2019-05-07T08:19:56.075Z,804.38
2019-05-07T08:20:56.131Z,804.38
2019-05-07T08:21:56.191Z,798.75
2019-05-07T08:22:56.249Z,776.25
2019-05-07T08:23:56.308Z,753.75
2019-05-07T08:24:56.371Z,731.25
2019-05-07T08:25:56.427Z,720.00
2019-05-07T08:26:56.486Z,720.00
2019-05-07T08:27:58.257Z,725.63
2019-05-07T08:28:56.604Z,736.88
2019-05-07T08:29:56.730Z,725.63
2019-05-07T08:30:56.736Z,725.63
2019-05-07T08:31:56.784Z,731.25
2019-05-07T08:32:56.840Z,736.88
2019-05-07T08:33:56.902Z,736.88
2019-05-07T08:34:56.957Z,720.00
2019-05-07T08:35:57.600Z,686.25
2019-05-07T08:36:57.077Z,675.00
2019-05-07T08:37:57.137Z,680.63
2019-05-07T08:39:09.932Z,675.00
2019-05-07T08:39:57.256Z,669.38
2019-05-07T08:40:57.313Z,675.00
2019-05-07T08:41:57.374Z,742.50
2019-05-07T08:42:57.431Z,793.13
2019-05-07T08:44:10.768Z,832.50
2019-05-07T08:44:57.574Z,849.38
2019-05-07T08:45:57.611Z,838.13
2019-05-07T08:46:57.671Z,810.00
2019-05-07T08:47:57.730Z,781.88
2019-05-07T08:48:57.791Z,731.25
2019-05-07T08:49:57.848Z,663.75
2019-05-07T08:50:57.906Z,607.50
2019-05-07T08:51:57.989Z,568.13
2019-05-07T08:52:58.120Z,562.50
2019-05-07T08:53:58.085Z,596.25
2019-05-07T08:54:58.143Z,590.63
2019-05-07T08:55:58.202Z,556.88
2019-05-07T08:56:58.783Z,500.63
2019-05-07T08:57:58.337Z,466.88
2019-05-07T08:58:58.379Z,438.75
2019-05-07T09:00:01.650Z,416.25
2019-05-07T09:00:58.497Z,388.13
2019-05-07T09:01:58.555Z,371.25
2019-05-07T09:02:59.185Z,348.75
2019-05-07T09:03:58.987Z,326.25
2019-05-07T09:04:58.731Z,303.75
2019-05-07T09:05:58.789Z,286.88
2019-05-07T09:06:59.478Z,275.63
2019-05-07T09:07:58.906Z,258.75
2019-05-07T09:08:58.963Z,247.50
2019-05-07T09:09:59.023Z,230.63
2019-05-07T09:10:59.079Z,225.00
2019-05-07T09:11:59.137Z,230.63
2019-05-07T09:12:59.195Z,241.88
2019-05-07T09:13:59.253Z,253.13
2019-05-07T09:14:59.310Z,270.00
2019-05-07T09:15:59.368Z,286.88
2019-05-07T09:16:59.474Z,315.00
2019-05-07T09:17:59.485Z,331.88
2019-05-07T09:18:59.541Z,348.75
2019-05-07T09:19:59.598Z,360.00
2019-05-07T09:21:02.044Z,376.88
2019-05-07T09:22:01.941Z,382.50
2019-05-07T09:23:01.933Z,399.38
2019-05-07T09:23:59.828Z,410.63
2019-05-07T09:24:59.885Z,416.25
2019-05-07T09:25:59.942Z,421.88
2019-05-07T09:26:59.999Z,433.13
2019-05-07T09:28:00.081Z,455.63
2019-05-07T09:29:00.115Z,472.50
2019-05-07T09:30:02.487Z,489.38
2019-05-07T09:31:01.771Z,534.38
2019-05-07T09:32:00.286Z,590.63
2019-05-07T09:33:02.332Z,641.25
2019-05-07T09:34:02.535Z,669.38
2019-05-07T09:35:02.304Z,697.50
2019-05-07T09:36:02.276Z,725.63
2019-05-07T09:37:02.357Z,776.25
2019-05-07T09:38:00.631Z,843.75
2019-05-07T09:39:02.689Z,900.00
2019-05-07T09:40:02.879Z,956.25
2019-05-07T09:41:02.429Z,984.38
2019-05-07T09:42:02.207Z,1012.50
2019-05-07T09:43:02.515Z,1012.50
2019-05-07T09:44:02.977Z,1001.25
2019-05-07T09:45:01.901Z,984.38
2019-05-07T09:46:02.677Z,911.25
2019-05-07T09:47:02.640Z,815.63
2019-05-07T09:48:02.838Z,708.75
2019-05-07T09:49:03.064Z,618.75
2019-05-07T09:50:05.533Z,540.00
2019-05-07T09:51:02.338Z,466.88
2019-05-07T09:52:02.601Z,399.38
2019-05-07T09:53:02.277Z,343.13
2019-05-07T09:54:02.549Z,303.75
2019-05-07T09:55:11.082Z,286.88
2019-05-07T09:56:02.147Z,270.00
2019-05-07T09:57:02.046Z,264.38
2019-05-07T09:58:02.135Z,264.38
2019-05-07T09:59:02.289Z,258.75
2019-05-07T10:00:02.341Z,264.38
2019-05-07T10:01:02.172Z,270.00
2019-05-07T10:02:02.047Z,286.88
2019-05-07T10:03:02.085Z,298.13
2019-05-07T10:04:02.708Z,309.38
2019-05-07T10:05:02.608Z,326.25
2019-05-07T10:06:02.457Z,354.38
2019-05-07T10:07:02.664Z,388.13
2019-05-07T10:08:02.376Z,427.50
2019-05-07T10:09:02.871Z,483.75
2019-05-07T10:10:03.266Z,540.00
2019-05-07T10:11:02.764Z,585.00
2019-05-07T10:12:02.878Z,624.38
2019-05-07T10:13:02.673Z,646.88
2019-05-07T10:14:02.774Z,680.63
2019-05-07T10:15:03.411Z,708.75
2019-05-07T10:16:04.275Z,708.75
2019-05-07T10:17:02.899Z,691.88
2019-05-07T10:18:02.959Z,669.38
2019-05-07T10:19:03.049Z,646.88
2019-05-07T10:20:11.620Z,641.25
2019-05-07T10:21:03.135Z,635.63
2019-05-07T10:22:03.192Z,630.00
2019-05-07T10:23:03.250Z,658.13
2019-05-07T10:24:03.327Z,708.75
2019-05-07T10:25:03.371Z,776.25
2019-05-07T10:26:03.426Z,815.63
2019-05-07T10:27:03.483Z,832.50
2019-05-07T10:28:03.543Z,838.13
2019-05-07T10:29:03.604Z,843.75
2019-05-07T10:30:03.661Z,832.50
2019-05-07T10:31:03.719Z,810.00
2019-05-07T10:32:03.790Z,826.88
2019-05-07T10:33:03.837Z,883.13
2019-05-07T10:34:03.896Z,956.25
2019-05-07T10:35:03.954Z,1012.50
2019-05-07T10:36:04.015Z,1057.50
2019-05-07T10:37:04.073Z,1029.38
2019-05-07T10:38:04.132Z,967.50
2019-05-07T10:39:04.191Z,916.88
2019-05-07T10:40:04.251Z,866.25
2019-05-07T10:41:04.312Z,815.63
2019-05-07T10:42:04.370Z,798.75
2019-05-07T10:43:04.429Z,815.63
2019-05-07T10:44:04.489Z,821.25
2019-05-07T10:45:04.553Z,826.88
2019-05-07T10:46:04.609Z,815.63
2019-05-07T10:47:04.668Z,798.75
2019-05-07T10:48:04.729Z,776.25
2019-05-07T10:49:04.790Z,759.38
2019-05-07T10:50:04.848Z,748.13
2019-05-07T10:51:04.908Z,731.25
2019-05-07T10:52:04.969Z,720.00
2019-05-07T10:53:05.029Z,725.63
2019-05-07T10:54:05.088Z,720.00
2019-05-07T10:55:05.157Z,708.75
2019-05-07T10:56:05.208Z,680.63
2019-05-07T10:57:05.272Z,652.50
2019-05-07T10:58:05.329Z,607.50
2019-05-07T10:59:05.387Z,590.63
2019-05-07T11:00:05.449Z,585.00
2019-05-07T11:01:05.508Z,556.88
2019-05-07T11:02:05.569Z,523.13
2019-05-07T11:03:05.628Z,511.88
2019-05-07T11:04:05.687Z,495.00
2019-05-07T11:05:06.148Z,489.38
2019-05-07T11:06:06.234Z,478.13
2019-05-07T11:07:05.961Z,472.50
2019-05-07T11:08:05.926Z,489.38
2019-05-07T11:09:05.985Z,517.50
2019-05-07T11:10:06.045Z,573.75
2019-05-07T11:11:06.110Z,630.00
2019-05-07T11:12:06.165Z,669.38
2019-05-07T11:13:06.222Z,736.88
2019-05-07T11:14:06.287Z,826.88
2019-05-07T11:15:06.340Z,933.75
2019-05-07T11:16:06.402Z,1012.50
2019-05-07T11:17:06.459Z,1085.63
2019-05-07T11:18:06.771Z,1136.25
2019-05-07T11:19:06.578Z,1186.88
2019-05-07T11:20:06.636Z,1215.00
2019-05-07T11:21:06.696Z,1254.38
2019-05-07T11:22:06.755Z,1327.50
2019-05-07T11:23:06.813Z,1445.63
2019-05-07T11:24:06.872Z,1597.50
2019-05-07T11:25:06.932Z,1732.50
2019-05-07T11:26:06.993Z,1608.75
2019-05-07T11:27:07.050Z,1451.25
2019-05-07T11:28:07.114Z,1305.00
2019-05-07T11:29:07.172Z,1226.25
2019-05-07T11:30:07.231Z,1102.50
2019-05-07T11:31:07.289Z,990.00
2019-05-07T11:32:07.349Z,888.75
2019-05-07T11:33:07.410Z,798.75
2019-05-07T11:34:07.472Z,720.00
2019-05-07T11:35:07.534Z,646.88
2019-05-07T11:36:07.591Z,596.25
2019-05-07T11:37:07.652Z,568.13
2019-05-07T11:38:18.816Z,528.75
2019-05-07T11:39:07.770Z,506.25
2019-05-07T11:40:07.832Z,466.88
2019-05-07T11:41:07.892Z,450.00
2019-05-07T11:42:07.952Z,348.75
2019-05-07T11:43:08.010Z,298.13
2019-05-07T11:44:08.072Z,275.63
2019-05-07T11:45:08.130Z,270.00
2019-05-07T11:46:08.193Z,281.25
2019-05-07T11:47:08.250Z,286.88
2019-05-07T11:48:08.309Z,281.25
2019-05-07T11:49:08.370Z,258.75
2019-05-07T11:50:08.429Z,247.50
2019-05-07T11:51:08.488Z,247.50
2019-05-07T11:52:08.546Z,258.75
2019-05-07T11:53:08.606Z,275.63
2019-05-07T11:54:08.666Z,315.00
2019-05-07T11:55:08.723Z,371.25
2019-05-07T11:56:08.782Z,410.63
2019-05-07T11:57:08.851Z,455.63
2019-05-07T11:58:08.901Z,506.25
2019-05-07T11:59:08.959Z,568.13
2019-05-07T12:00:09.017Z,618.75
2019-05-07T12:01:09.079Z,675.00
2019-05-07T12:02:09.135Z,736.88
2019-05-07T12:03:09.194Z,770.63
2019-05-07T12:04:09.252Z,798.75
2019-05-07T12:05:09.311Z,826.88
2019-05-07T12:06:09.371Z,849.38
2019-05-07T12:07:11.767Z,860.63
2019-05-07T12:08:09.486Z,888.75
2019-05-07T12:09:09.545Z,922.50
2019-05-07T12:10:09.603Z,967.50
2019-05-07T12:11:11.775Z,1040.63
2019-05-07T12:12:09.721Z,1102.50
2019-05-07T12:13:09.780Z,1170.00
2019-05-07T12:14:09.838Z,1254.38
2019-05-07T12:15:09.897Z,1361.25
2019-05-07T12:16:13.693Z,1310.63
2019-05-07T12:17:11.929Z,1282.50
2019-05-07T12:18:11.882Z,1231.88
2019-05-07T12:19:12.387Z,1153.13
2019-05-07T12:20:12.382Z,1102.50
2019-05-07T12:21:18.271Z,1057.50
2019-05-07T12:22:12.099Z,1029.38
2019-05-07T12:23:12.178Z,984.38
2019-05-07T12:24:12.364Z,939.38
2019-05-07T12:25:12.124Z,916.88
2019-05-07T12:26:12.391Z,933.75
2019-05-07T12:27:11.896Z,973.13
2019-05-07T12:28:10.668Z,1035.00
2019-05-07T12:29:11.822Z,1074.38
2019-05-07T12:30:12.181Z,1091.25
2019-05-07T12:31:12.163Z,1108.13
2019-05-07T12:32:11.491Z,1147.50
2019-05-07T12:33:12.365Z,1186.88
2019-05-07T12:34:11.842Z,1209.38
2019-05-07T12:35:12.702Z,1248.75
2019-05-07T12:36:12.605Z,1316.25
2019-05-07T12:37:12.284Z,1440.00
2019-05-07T12:38:12.789Z,1704.38
2019-05-07T12:39:12.752Z,1546.88
2019-05-07T12:40:12.423Z,1665.00
2019-05-07T12:41:12.819Z,1530.00
2019-05-07T12:42:12.032Z,1411.88
2019-05-07T12:43:11.572Z,1327.50
2019-05-07T12:44:13.001Z,1260.00
2019-05-07T12:45:12.612Z,1237.50
2019-05-07T12:46:11.995Z,1265.63